Metar Aviation Weather Data FACT Cape Town International

13°C Temp
12°C Dewpoint
94% Humidity
Temperature
37 KM/H
23 MPH
20 KTS
330°
North North
West

Wind Speed
Mostly Scattered
Clouds
Pressure 1013 (hPa) - 29.91 (in)
Visibility 2.2 (mi) - 3.5 (km)

Current Conditions
FACT
Cape Town International
Metar :FACT 251000Z 33020KT 3500 -DZRA SCT010 BKN020 13/12 Q1013 BECMG 6000
Tue 25th September 12:00 pm

Cape Town International
  Metar Aviation API Data Provided by https://www.checkwx.com/ PHP scripts by weather34.com ©2018